Ana Sayfa
METAR-TAF:

METAR-TAF

Havaalanları :

Ranger Station

Stanley, Idaho, Amerika Birleşik Devletleri

Enlem: 44-12-31N, Boylam: 114-56-04W, yükseklik: 1980 m

Güncel hava durumu gözlemi

Rapor saat 13:51 UTC de 18 dakika önce yapıldı.
Rüzgar güneydoğudan 4 kt
Sıcaklık 11°C
Nem 66%
Basınç 1021 hPa

METAR: KSNT 241351Z AUTO 14004KT 11/05 A3016 RMK AO1 SLP106 T01110050

Saat: 08:09 (14:09 UTC)


TAF: eksik

4.000'den fazla havaalanı için hava durumu gözlemleri ve tahminleri (METAR ve TAF raporları).

Kullanılabilir istasyonlar harita üzerinde sarı ve kırmızı noktalarla gösterilir.

İstasyonun adını görmek için fareyi noktanın üzerinde gezdirin.

Sonrasında hava gözlem ve tahminlerini görmek için tıklayın.

Haritayı değiştirmek için: yaklaştırmak için siyah artı işaretli yeşil düğmeye ve uzaklaştırmak için de eksi işaretli düğmeye hızla tıklayın; bitişik haritalar için yeşil okları kullanın.


METAR-TAF: